KBCB

Virginia Tech / Montgomery Executive Airport

Blacksburg, Virginia, USA
METAR KBCB 222135Z AUTO 15007KT 10SM CLR 18/06 A3029 RMK AO2 T01800058
Observed Flight Rules
Apr-22 @ 21:35 UTC (25 minutes ago) Visual Flight Rules
Wind Visibility Clouds
150° at 7 knots 10 miles
  • Clear skies
Temperatures Readings
Current 18°C / 64°F
Dewpoint 6°C / 43°F
Humidity 46%
Altimeter 30.29" Hg
Pressure 1026 hPa
Elevation 650
METAR KBCB 222135Z AUTO 15007KT 10SM CLR 18/06 A3029 RMK AO2 T01800058
Observed Flight Rules
Apr-22 @ 21:35 UTC
(25 minutes ago)
VFR
Wind Visibility
150° at 7 knots 10 miles
Clouds
  • Clear skies
Temperature Dewpoint
18°C / 64°F 6°C / 43°F
Humidity Altimeter Pressure
46% 30.29" Hg 1026 hPa